createdAt,value
2019-05-15T00:00:23.808Z,0.00
2019-05-15T00:01:23.771Z,0.00
2019-05-15T00:02:23.749Z,0.00
2019-05-15T00:03:23.727Z,0.00
2019-05-15T00:04:23.704Z,0.00
2019-05-15T00:05:23.696Z,0.00
2019-05-15T00:06:23.661Z,0.00
2019-05-15T00:07:23.641Z,0.00
2019-05-15T00:08:23.624Z,0.00
2019-05-15T00:09:23.599Z,0.00
2019-05-15T00:10:23.612Z,0.00
2019-05-15T00:11:23.556Z,0.00
2019-05-15T00:12:23.538Z,0.00
2019-05-15T00:13:23.511Z,0.00
2019-05-15T00:14:23.490Z,0.00
2019-05-15T00:15:23.468Z,0.00
2019-05-15T00:16:23.476Z,0.00
2019-05-15T00:17:23.425Z,0.00
2019-05-15T00:18:23.407Z,0.00
2019-05-15T00:19:23.383Z,0.00
2019-05-15T00:20:23.359Z,0.00
2019-05-15T00:21:23.350Z,0.00
2019-05-15T00:22:23.315Z,0.00
2019-05-15T00:23:23.295Z,0.00
2019-05-15T00:24:23.277Z,0.00
2019-05-15T00:25:23.255Z,0.00
2019-05-15T00:26:23.239Z,0.00
2019-05-15T00:27:23.206Z,0.00
2019-05-15T00:28:23.185Z,0.00
2019-05-15T00:29:23.162Z,0.00
2019-05-15T00:30:23.141Z,0.00
2019-05-15T00:31:23.140Z,0.00
2019-05-15T00:32:23.100Z,0.00
2019-05-15T00:33:23.076Z,0.00
2019-05-15T00:34:23.053Z,0.00
2019-05-15T00:35:23.031Z,0.00
2019-05-15T00:36:23.029Z,0.00
2019-05-15T00:37:22.988Z,0.00
2019-05-15T00:38:22.964Z,0.00
2019-05-15T00:39:22.944Z,0.00
2019-05-15T00:40:22.926Z,0.00
2019-05-15T00:41:22.906Z,0.00
2019-05-15T00:42:22.900Z,0.00
2019-05-15T00:43:22.865Z,0.00
2019-05-15T00:44:22.833Z,0.00
2019-05-15T00:45:22.812Z,0.00
2019-05-15T00:46:22.789Z,0.00
2019-05-15T00:47:22.782Z,0.00
2019-05-15T00:48:22.747Z,0.00
2019-05-15T00:49:22.724Z,0.00
2019-05-15T00:50:22.707Z,0.00
2019-05-15T00:51:22.681Z,0.00
2019-05-15T00:52:22.679Z,0.00
2019-05-15T00:53:22.636Z,0.00
2019-05-15T00:54:22.616Z,0.00
2019-05-15T00:55:22.594Z,0.00
2019-05-15T00:56:22.614Z,0.00
2019-05-15T00:57:22.561Z,0.00
2019-05-15T00:58:22.526Z,0.00
2019-05-15T00:59:26.631Z,0.00
2019-05-15T01:00:22.483Z,0.00
2019-05-15T01:01:22.460Z,0.00
2019-05-15T01:02:22.448Z,0.00
2019-05-15T01:03:22.425Z,0.00
2019-05-15T01:04:22.395Z,0.00
2019-05-15T01:05:22.368Z,0.00
2019-05-15T01:06:22.347Z,0.00
2019-05-15T01:07:22.368Z,0.00
2019-05-15T01:08:22.304Z,0.00
2019-05-15T01:09:22.284Z,0.00
2019-05-15T01:10:22.261Z,0.00
2019-05-15T01:11:22.241Z,0.00
2019-05-15T01:12:22.217Z,0.00
2019-05-15T01:13:22.210Z,0.00
2019-05-15T01:14:22.175Z,0.00
2019-05-15T01:15:22.152Z,0.00
2019-05-15T01:16:22.126Z,0.00
2019-05-15T01:17:22.104Z,0.00
2019-05-15T01:18:22.097Z,0.00
2019-05-15T01:19:22.067Z,0.00
2019-05-15T01:20:22.041Z,0.00
2019-05-15T01:21:22.018Z,0.00
2019-05-15T01:22:22.010Z,0.00
2019-05-15T01:23:21.987Z,0.00
2019-05-15T01:24:21.949Z,0.00
2019-05-15T01:25:21.929Z,0.00
2019-05-15T01:26:21.908Z,0.00
2019-05-15T01:27:21.886Z,0.00
2019-05-15T01:28:21.898Z,0.00
2019-05-15T01:29:21.839Z,0.00
2019-05-15T01:30:21.817Z,0.00
2019-05-15T01:31:21.794Z,0.00
2019-05-15T01:32:21.771Z,0.00
2019-05-15T01:33:21.749Z,0.00
2019-05-15T01:34:21.747Z,0.00
2019-05-15T01:35:21.706Z,0.00
2019-05-15T01:36:21.686Z,0.00
2019-05-15T01:37:21.658Z,0.00
2019-05-15T01:38:21.638Z,0.00
2019-05-15T01:39:21.636Z,0.00
2019-05-15T01:40:21.593Z,0.00
2019-05-15T01:41:21.569Z,0.00
2019-05-15T01:42:21.548Z,0.00
2019-05-15T01:43:21.531Z,0.00
2019-05-15T01:44:21.519Z,0.00
2019-05-15T01:45:21.479Z,0.00
2019-05-15T01:46:21.458Z,0.00
2019-05-15T01:47:21.437Z,0.00
2019-05-15T01:48:21.413Z,0.00
2019-05-15T01:49:21.412Z,0.00
2019-05-15T01:50:21.370Z,0.00
2019-05-15T01:51:21.347Z,0.00
2019-05-15T01:52:21.322Z,0.00
2019-05-15T01:53:21.302Z,0.00
2019-05-15T01:54:21.282Z,0.00
2019-05-15T01:55:21.273Z,0.00
2019-05-15T01:56:21.233Z,0.00
2019-05-15T01:57:21.211Z,0.00
2019-05-15T01:58:21.190Z,0.00
2019-05-15T01:59:21.170Z,0.00
2019-05-15T02:00:21.159Z,0.00
2019-05-15T02:01:21.129Z,0.00
2019-05-15T02:02:21.099Z,0.00
2019-05-15T02:03:21.076Z,0.00
2019-05-15T02:04:21.061Z,0.00
2019-05-15T02:05:21.046Z,0.00
2019-05-15T02:06:21.009Z,0.00
2019-05-15T02:07:20.986Z,0.00
2019-05-15T02:08:20.964Z,0.00
2019-05-15T02:09:20.944Z,0.00
2019-05-15T02:10:20.936Z,0.00
2019-05-15T02:11:20.896Z,0.00
2019-05-15T02:12:20.874Z,0.00
2019-05-15T02:13:20.850Z,0.00
2019-05-15T02:14:20.830Z,0.00
2019-05-15T02:15:20.821Z,0.00
2019-05-15T02:16:20.783Z,0.00
2019-05-15T02:17:20.764Z,0.00
2019-05-15T02:18:20.739Z,0.00
2019-05-15T02:19:20.717Z,0.00
2019-05-15T02:20:20.709Z,0.00
2019-05-15T02:21:20.673Z,0.00
2019-05-15T02:22:20.648Z,0.00
2019-05-15T02:23:20.625Z,0.00
2019-05-15T02:24:20.601Z,0.00
2019-05-15T02:25:20.594Z,0.00
2019-05-15T02:26:20.558Z,0.00
2019-05-15T02:27:20.537Z,0.00
2019-05-15T02:28:20.510Z,0.00
2019-05-15T02:29:25.149Z,0.00
2019-05-15T02:30:28.298Z,0.00
2019-05-15T02:31:20.444Z,0.00
2019-05-15T02:32:20.423Z,0.00
2019-05-15T02:33:20.399Z,0.00
2019-05-15T02:34:20.386Z,0.00
2019-05-15T02:35:20.354Z,0.00
2019-05-15T02:36:20.882Z,0.00
2019-05-15T02:37:20.317Z,0.00
2019-05-15T02:38:20.385Z,0.00
2019-05-15T02:39:20.266Z,0.00
2019-05-15T02:40:20.248Z,0.00
2019-05-15T02:41:20.231Z,0.00
2019-05-15T02:42:20.195Z,0.00
2019-05-15T02:43:20.176Z,0.00
2019-05-15T02:44:20.298Z,0.00
2019-05-15T02:45:20.126Z,0.00
2019-05-15T02:46:20.125Z,0.00
2019-05-15T02:47:20.278Z,0.00
2019-05-15T02:48:20.218Z,0.00
2019-05-15T02:49:20.049Z,0.00
2019-05-15T02:50:20.482Z,0.00
2019-05-15T02:51:19.989Z,0.00
2019-05-15T02:52:20.232Z,0.00
2019-05-15T06:33:22.952Z,264.38
2019-05-15T06:34:22.916Z,264.38
2019-05-15T06:35:22.894Z,264.38
2019-05-15T06:36:22.889Z,264.38
2019-05-15T06:37:23.103Z,270.00
2019-05-15T06:38:22.833Z,270.00
2019-05-15T06:39:22.879Z,270.00
2019-05-15T06:40:22.836Z,270.00
2019-05-15T06:41:22.790Z,270.00
2019-05-15T06:42:22.753Z,270.00
2019-05-15T06:43:32.104Z,270.00
2019-05-15T06:44:22.709Z,270.00
2019-05-15T06:45:22.691Z,270.00
2019-05-15T06:46:22.668Z,275.63
2019-05-15T06:47:22.666Z,275.63
2019-05-15T06:48:22.635Z,275.63
2019-05-15T06:49:22.612Z,275.63
2019-05-15T06:50:22.598Z,275.63
2019-05-15T06:51:22.573Z,275.63
2019-05-15T06:52:22.566Z,275.63
2019-05-15T06:53:22.535Z,275.63
2019-05-15T06:54:22.517Z,275.63
2019-05-15T06:55:22.499Z,281.25
2019-05-15T06:56:22.481Z,281.25
2019-05-15T06:57:22.487Z,281.25
2019-05-15T06:58:25.028Z,281.25
2019-05-15T06:59:22.424Z,281.25
2019-05-15T07:00:22.407Z,281.25
2019-05-15T07:01:22.387Z,281.25
2019-05-15T07:02:22.386Z,281.25
2019-05-15T07:03:25.735Z,281.25
2019-05-15T07:04:22.334Z,281.25
2019-05-15T07:05:22.329Z,286.88
2019-05-15T07:06:22.296Z,286.88
2019-05-15T07:07:22.278Z,286.88
2019-05-15T07:08:22.276Z,286.88
2019-05-15T07:09:22.248Z,286.88
2019-05-15T07:10:22.228Z,286.88
2019-05-15T07:11:22.207Z,286.88
2019-05-15T07:12:22.189Z,286.88
2019-05-15T07:13:22.185Z,286.88
2019-05-15T07:14:22.156Z,286.88
2019-05-15T07:15:22.137Z,286.88
2019-05-15T07:16:22.122Z,286.88
2019-05-15T09:42:57.935Z,309.38
2019-05-15T09:43:57.993Z,309.38
2019-05-15T09:44:58.308Z,309.38
2019-05-15T09:45:58.420Z,309.38
2019-05-15T09:46:58.464Z,315.00
2019-05-15T09:47:58.928Z,315.00
2019-05-15T09:48:59.352Z,315.00
2019-05-15T09:49:58.913Z,315.00
2019-05-15T09:50:58.721Z,315.00
2019-05-15T09:52:00.539Z,315.00
2019-05-15T09:52:58.854Z,320.63
2019-05-15T09:53:59.578Z,320.63
2019-05-15T09:54:59.308Z,320.63
2019-05-15T09:55:59.856Z,320.63
2019-05-15T09:56:58.520Z,320.63
2019-05-15T09:57:59.085Z,320.63
2019-05-15T09:58:58.160Z,320.63
2019-05-15T09:59:58.637Z,320.63
2019-05-15T10:00:57.566Z,320.63
2019-05-15T10:01:58.871Z,326.25
2019-05-15T10:02:57.514Z,326.25
2019-05-15T10:03:57.495Z,326.25
2019-05-15T10:05:06.109Z,326.25
2019-05-15T10:05:57.476Z,326.25
2019-05-15T10:06:57.442Z,326.25
2019-05-15T10:07:57.431Z,331.88
2019-05-15T10:08:57.412Z,331.88
2019-05-15T10:09:57.392Z,331.88
2019-05-15T10:10:59.346Z,331.88
2019-05-15T10:11:57.361Z,331.88
2019-05-15T10:12:59.435Z,331.88
2019-05-15T10:54:38.070Z,376.88
2019-05-15T10:55:39.083Z,376.88
2019-05-15T10:56:38.369Z,376.88
2019-05-15T10:57:35.952Z,376.88
2019-05-15T10:58:35.909Z,382.50
2019-05-15T10:59:35.896Z,382.50
2019-05-15T11:00:35.877Z,382.50
2019-05-15T11:01:38.392Z,382.50
2019-05-15T11:02:35.844Z,388.13
2019-05-15T11:03:35.848Z,388.13
2019-05-15T11:04:35.812Z,388.13
2019-05-15T11:05:41.837Z,388.13
2019-05-15T11:06:35.783Z,393.75
2019-05-15T11:07:35.771Z,393.75
2019-05-15T11:08:35.764Z,393.75
2019-05-15T11:09:37.554Z,393.75
2019-05-15T11:10:38.673Z,399.38
2019-05-15T11:11:35.702Z,399.38
2019-05-15T11:12:35.689Z,399.38
2019-05-15T11:13:38.018Z,399.38
2019-05-15T11:14:37.870Z,405.00
2019-05-15T11:15:38.763Z,405.00
2019-05-15T11:16:35.628Z,405.00
2019-05-15T11:17:38.329Z,405.00
2019-05-15T11:18:35.701Z,410.63
2019-05-15T11:19:37.253Z,410.63
2019-05-15T11:20:35.569Z,410.63
2019-05-15T11:21:35.549Z,410.63
2019-05-15T11:22:35.535Z,416.25
2019-05-15T11:23:35.519Z,416.25
2019-05-15T11:24:38.368Z,416.25
2019-05-15T11:25:37.672Z,416.25
2019-05-15T11:26:35.476Z,427.50
2019-05-15T11:27:35.466Z,421.88
2019-05-15T11:28:38.733Z,421.88
2019-05-15T11:29:35.448Z,421.88
2019-05-15T11:30:35.418Z,421.88
2019-05-15T11:31:35.406Z,427.50
2019-05-15T11:32:35.401Z,427.50
2019-05-15T11:33:35.376Z,427.50
2019-05-15T11:34:35.384Z,427.50
2019-05-15T11:35:35.351Z,427.50
2019-05-15T11:36:35.334Z,433.13
2019-05-15T11:37:35.337Z,433.13
2019-05-15T11:38:35.304Z,433.13
2019-05-15T11:39:35.311Z,433.13
2019-05-15T11:40:35.279Z,438.75
2019-05-15T11:41:35.264Z,438.75
2019-05-15T11:42:35.250Z,438.75
2019-05-15T11:43:35.876Z,438.75
2019-05-15T11:44:35.242Z,438.75
2019-05-15T11:45:35.208Z,438.75
2019-05-15T11:46:35.203Z,444.38
2019-05-15T11:47:35.183Z,444.38
2019-05-15T11:48:35.171Z,444.38
2019-05-15T11:49:35.172Z,444.38
2019-05-15T11:50:35.146Z,444.38
2019-05-15T11:51:35.133Z,444.38
2019-05-15T11:52:37.364Z,444.38
2019-05-15T11:53:35.110Z,444.38
2019-05-15T11:54:35.110Z,444.38
2019-05-15T11:55:35.084Z,450.00
2019-05-15T11:56:35.072Z,450.00
2019-05-15T11:57:42.485Z,450.00
2019-05-15T11:58:35.044Z,450.00
2019-05-15T11:59:35.059Z,450.00
2019-05-15T12:00:35.021Z,455.63
2019-05-15T12:01:35.010Z,455.63
2019-05-15T12:02:34.992Z,455.63
2019-05-15T12:03:34.980Z,455.63
2019-05-15T12:04:34.967Z,461.25
2019-05-15T12:05:34.971Z,461.25
2019-05-15T12:06:34.946Z,461.25
2019-05-15T12:07:34.929Z,461.25
2019-05-15T12:08:34.915Z,461.25
2019-05-15T12:09:34.902Z,466.88
2019-05-15T12:10:34.906Z,466.88
2019-05-15T12:11:37.357Z,466.88
2019-05-15T12:12:34.861Z,472.50
2019-05-15T12:13:34.850Z,472.50
2019-05-15T12:14:34.840Z,472.50
2019-05-15T12:15:34.850Z,472.50
2019-05-15T12:16:36.286Z,472.50
2019-05-15T12:17:34.797Z,472.50
2019-05-15T12:18:34.784Z,478.13
2019-05-15T12:19:34.771Z,478.13
2019-05-15T12:20:34.758Z,483.75
2019-05-15T12:21:34.761Z,478.13
2019-05-15T12:22:34.732Z,478.13
2019-05-15T12:23:34.719Z,478.13
2019-05-15T12:24:36.819Z,489.38
2019-05-15T12:25:34.693Z,489.38
2019-05-15T12:26:34.699Z,483.75
2019-05-15T12:27:34.669Z,489.38
2019-05-15T12:28:34.655Z,489.38
2019-05-15T12:29:34.646Z,483.75
2019-05-15T12:30:34.630Z,489.38
2019-05-15T12:31:34.639Z,489.38
2019-05-15T12:32:36.734Z,489.38
2019-05-15T12:33:34.594Z,489.38
2019-05-15T12:34:34.580Z,489.38
2019-05-15T12:35:34.569Z,489.38
2019-05-15T12:36:51.347Z,489.38
2019-05-15T12:37:34.558Z,495.00
2019-05-15T12:38:34.531Z,495.00
2019-05-15T12:39:34.518Z,500.63
2019-05-15T13:00:34.273Z,641.25
2019-05-15T13:01:34.262Z,691.88
2019-05-15T13:02:34.267Z,742.50
2019-05-15T13:03:34.235Z,1608.75
2019-05-15T13:04:34.225Z,3870.00
2019-05-15T13:05:34.214Z,4561.88
2019-05-15T13:06:47.364Z,4758.75
2019-05-15T13:07:34.194Z,4258.13
2019-05-15T13:08:34.198Z,4629.38
2019-05-15T13:09:34.172Z,4736.25
2019-05-15T13:10:34.166Z,4865.63
2019-05-15T13:11:34.149Z,4786.88
2019-05-15T13:12:34.139Z,4651.88
2019-05-15T13:13:34.144Z,4826.25
2019-05-15T13:14:34.122Z,4528.13
2019-05-15T13:15:34.119Z,4955.63
2019-05-15T13:16:34.104Z,5225.63
2019-05-15T13:17:34.090Z,5360.63
2019-05-15T13:18:34.097Z,4972.50
2019-05-15T13:19:34.071Z,4944.38
2019-05-15T13:20:34.062Z,5979.38
2019-05-15T13:21:34.076Z,5630.63
2019-05-15T13:22:36.316Z,4978.13
2019-05-15T13:23:34.047Z,5540.63
2019-05-15T13:24:34.023Z,5343.75
2019-05-15T13:25:34.010Z,5506.88
2019-05-15T13:26:34.003Z,6018.75
2019-05-15T13:27:33.991Z,6525.00
2019-05-15T13:28:33.982Z,6525.00
2019-05-15T13:29:33.990Z,5799.38
2019-05-15T13:30:33.968Z,4376.25
2019-05-15T13:31:33.953Z,4117.50
2019-05-15T13:32:33.946Z,4117.50
2019-05-15T13:33:33.938Z,3796.88
2019-05-15T13:34:33.943Z,3211.88
2019-05-15T13:35:33.924Z,2835.00
2019-05-15T13:36:33.912Z,3015.00
2019-05-15T13:37:33.903Z,2840.63
2019-05-15T13:38:33.894Z,2638.13
2019-05-15T13:39:33.903Z,2598.75
2019-05-15T13:40:37.911Z,2677.50
2019-05-15T13:41:33.870Z,2553.75
2019-05-15T13:42:33.861Z,2295.00
2019-05-15T13:43:33.854Z,2199.38
2019-05-15T13:44:33.861Z,2334.38
2019-05-15T13:45:33.839Z,2587.50
2019-05-15T13:46:33.831Z,2497.50
2019-05-15T13:47:33.823Z,2221.88
2019-05-15T13:48:33.815Z,2311.88
2019-05-15T13:49:33.831Z,2548.13
2019-05-15T13:50:33.844Z,2806.88
2019-05-15T13:51:33.793Z,2992.50
2019-05-15T13:52:33.789Z,2795.63
2019-05-15T13:53:33.782Z,2660.63
2019-05-15T13:54:33.775Z,2857.50
2019-05-15T13:55:37.195Z,3661.88
2019-05-15T13:56:33.761Z,3886.88
2019-05-15T13:57:33.758Z,4027.50
2019-05-15T13:58:33.748Z,5428.13
2019-05-15T13:59:33.740Z,6429.38
2019-05-15T14:00:33.752Z,6013.13
2019-05-15T14:01:33.729Z,5281.88
2019-05-15T14:02:33.721Z,5118.75
2019-05-15T14:03:33.722Z,5034.38
2019-05-15T14:04:33.708Z,4612.50
2019-05-15T14:05:33.718Z,4696.88
2019-05-15T14:06:33.695Z,5085.00
2019-05-15T14:07:48.334Z,4837.50
2019-05-15T14:08:33.683Z,4635.00
2019-05-15T14:09:34.612Z,4522.50
2019-05-15T14:10:33.688Z,4668.75
2019-05-15T14:11:33.664Z,4595.63
2019-05-15T14:12:33.661Z,4252.50
2019-05-15T14:13:33.655Z,4460.63
2019-05-15T14:14:33.646Z,4820.63
2019-05-15T14:15:33.660Z,4668.75
2019-05-15T14:16:33.645Z,4567.50
2019-05-15T14:17:33.627Z,5248.13
2019-05-15T14:18:33.622Z,5293.13
2019-05-15T14:19:33.619Z,4471.88
2019-05-15T14:20:33.628Z,4027.50
2019-05-15T14:21:33.604Z,4505.63
2019-05-15T14:22:33.600Z,4696.88
2019-05-15T14:23:33.595Z,4556.25
2019-05-15T14:24:33.590Z,4618.13
2019-05-15T14:25:33.597Z,4815.00
2019-05-15T14:26:33.577Z,4674.38
2019-05-15T14:27:33.572Z,4623.75
2019-05-15T14:28:33.565Z,4640.63
2019-05-15T14:29:33.559Z,4550.63
2019-05-15T14:30:33.570Z,4370.63
2019-05-15T14:31:36.404Z,5276.25
2019-05-15T14:32:38.587Z,5197.50
2019-05-15T14:33:33.542Z,4792.50
2019-05-15T14:34:33.537Z,4280.63
2019-05-15T14:35:33.564Z,4010.63
2019-05-15T14:36:33.524Z,4348.13
2019-05-15T14:37:33.519Z,4471.88
2019-05-15T14:38:33.513Z,4837.50
2019-05-15T14:39:33.530Z,4685.63
2019-05-15T14:40:33.505Z,4404.38
2019-05-15T14:41:33.511Z,4393.13
2019-05-15T14:42:33.496Z,4348.13
2019-05-15T14:43:33.489Z,4027.50
2019-05-15T14:44:33.498Z,4173.75
2019-05-15T14:45:33.479Z,4590.00
2019-05-15T14:46:33.552Z,4792.50
2019-05-15T14:47:33.471Z,4831.88
2019-05-15T14:48:33.465Z,4708.13
2019-05-15T14:49:35.440Z,4353.75
2019-05-15T14:50:33.453Z,4421.25
2019-05-15T14:51:33.463Z,4342.50
2019-05-15T14:52:33.442Z,4066.88
2019-05-15T14:53:33.437Z,4241.25
2019-05-15T14:54:33.443Z,4325.63
2019-05-15T14:55:34.700Z,4066.88
2019-05-15T14:56:33.437Z,4044.38
2019-05-15T14:57:33.415Z,4680.00
2019-05-15T14:58:33.413Z,4556.25
2019-05-15T14:59:33.409Z,4263.75
2019-05-15T15:00:35.060Z,4590.00
2019-05-15T15:01:33.427Z,4545.00
2019-05-15T15:02:33.396Z,4522.50
2019-05-15T15:03:33.398Z,4606.88
2019-05-15T15:04:33.389Z,4263.75
2019-05-15T15:05:33.383Z,4083.75
2019-05-15T15:06:33.380Z,4140.00
2019-05-15T15:07:33.391Z,4404.38
2019-05-15T15:08:33.371Z,4618.13
2019-05-15T15:09:33.364Z,4663.13
2019-05-15T15:10:33.365Z,742.50
2019-05-15T15:11:33.358Z,1102.50
2019-05-15T15:12:33.371Z,3363.75
2019-05-15T15:13:33.347Z,4173.75
2019-05-15T15:14:33.344Z,5135.63
2019-05-15T15:15:33.342Z,4595.63
2019-05-15T15:16:33.334Z,4089.38
2019-05-15T15:17:33.367Z,3172.50
2019-05-15T15:18:33.325Z,4443.75
2019-05-15T15:19:33.321Z,4286.25
2019-05-15T15:20:33.317Z,4415.63
2019-05-15T15:21:33.313Z,4134.38
2019-05-15T15:22:33.303Z,3796.88
2019-05-15T15:23:33.321Z,4218.75
2019-05-15T15:24:33.296Z,4567.50
2019-05-15T15:25:33.287Z,4308.75
2019-05-15T15:26:33.298Z,4010.63
2019-05-15T15:27:33.279Z,2070.00
2019-05-15T15:28:33.292Z,4190.63
2019-05-15T15:29:33.270Z,3971.25
2019-05-15T15:30:33.267Z,4213.13
2019-05-15T15:31:33.265Z,4286.25
2019-05-15T15:32:33.277Z,4348.13
2019-05-15T15:33:33.273Z,4168.13
2019-05-15T15:34:33.258Z,2835.00
2019-05-15T15:35:33.250Z,1597.50
2019-05-15T15:36:33.247Z,3729.38
2019-05-15T15:37:33.239Z,4398.75
2019-05-15T15:38:40.785Z,1406.25
2019-05-15T15:39:33.236Z,3780.00
2019-05-15T15:40:33.231Z,4252.50
2019-05-15T15:41:33.225Z,4348.13
2019-05-15T15:42:33.221Z,3780.00
2019-05-15T15:43:33.231Z,3622.50
2019-05-15T15:44:33.210Z,3645.00
2019-05-15T15:45:33.207Z,1501.88
2019-05-15T15:46:33.204Z,1631.25
2019-05-15T15:47:33.202Z,3391.88
2019-05-15T15:48:33.212Z,3785.63
2019-05-15T15:49:33.192Z,3791.25
2019-05-15T15:50:33.190Z,3746.25
2019-05-15T15:51:33.183Z,3645.00
2019-05-15T15:52:33.181Z,1428.75
2019-05-15T15:53:33.198Z,3650.63
2019-05-15T15:54:33.174Z,3296.25
2019-05-15T15:55:33.171Z,3200.63
2019-05-15T15:56:33.166Z,3369.38
2019-05-15T15:57:33.160Z,3515.63
2019-05-15T15:58:33.155Z,3487.50
2019-05-15T15:59:33.185Z,3600.00
2019-05-15T16:00:33.149Z,3577.50
2019-05-15T16:01:33.145Z,3498.75
2019-05-15T16:02:33.142Z,3341.25
2019-05-15T16:03:33.145Z,3043.13
2019-05-15T16:04:33.150Z,3166.88
2019-05-15T16:05:33.133Z,3532.50
2019-05-15T16:06:33.143Z,3453.75
2019-05-15T16:07:33.124Z,3121.88
2019-05-15T16:08:33.123Z,3099.38
2019-05-15T16:09:33.134Z,3273.75
2019-05-15T16:10:33.115Z,3178.13
2019-05-15T16:11:33.112Z,2992.50
2019-05-15T16:12:33.109Z,3031.88
2019-05-15T16:13:33.107Z,3268.13
2019-05-15T16:14:33.124Z,3307.50
2019-05-15T16:15:33.101Z,3189.38
2019-05-15T16:16:33.097Z,3195.00
2019-05-15T16:17:33.096Z,3195.00
2019-05-15T16:18:33.098Z,3262.50
2019-05-15T16:19:33.089Z,3206.25
2019-05-15T16:20:33.103Z,2986.88
2019-05-15T16:21:33.084Z,2964.38
2019-05-15T16:22:33.079Z,2970.00
2019-05-15T16:23:33.080Z,2925.00
2019-05-15T16:24:33.076Z,3110.63
2019-05-15T16:25:33.109Z,3116.25
2019-05-15T16:26:33.075Z,3026.25
2019-05-15T16:27:33.067Z,2902.50
2019-05-15T16:28:33.068Z,3043.13
2019-05-15T16:29:33.060Z,2992.50
2019-05-15T16:30:40.767Z,2868.75
2019-05-15T16:31:33.069Z,3071.25
2019-05-15T16:32:33.052Z,3088.13
2019-05-15T16:33:33.047Z,2880.00
2019-05-15T16:34:33.045Z,2857.50
2019-05-15T16:35:33.043Z,3020.63
2019-05-15T16:36:33.054Z,2958.75
2019-05-15T16:37:33.036Z,2750.63
2019-05-15T16:38:33.035Z,2716.88
2019-05-15T16:39:33.033Z,2874.38
2019-05-15T16:40:33.030Z,2863.13
2019-05-15T16:41:33.046Z,2812.50
2019-05-15T16:42:33.022Z,2767.50
2019-05-15T16:43:33.025Z,2677.50
2019-05-15T16:44:33.020Z,2570.63
2019-05-15T16:45:33.016Z,2581.88
2019-05-15T16:46:33.037Z,2700.00
2019-05-15T16:47:33.007Z,2756.25
2019-05-15T16:48:33.004Z,2643.75
2019-05-15T16:49:33.003Z,2621.25
2019-05-15T16:50:33.002Z,2666.25
2019-05-15T16:51:33.012Z,2598.75
2019-05-15T16:52:32.994Z,2401.88
2019-05-15T16:53:32.993Z,2311.88
2019-05-15T16:54:32.986Z,2446.88
2019-05-15T16:55:33.005Z,2553.75
2019-05-15T16:56:36.312Z,2463.75
2019-05-15T16:57:32.979Z,2413.13
2019-05-15T16:58:32.981Z,2413.13
2019-05-15T16:59:35.929Z,2368.13
2019-05-15T17:00:32.969Z,2373.75
2019-05-15T17:01:32.980Z,2379.38
2019-05-15T17:02:32.963Z,2306.25
2019-05-15T17:03:32.962Z,2356.88
2019-05-15T17:04:42.304Z,2452.50
2019-05-15T17:05:32.951Z,2503.13
2019-05-15T17:06:32.962Z,2424.38
2019-05-15T17:07:32.944Z,2345.63
2019-05-15T17:08:32.942Z,2368.13
2019-05-15T17:09:32.955Z,2328.75
2019-05-15T17:10:32.933Z,2278.13
2019-05-15T17:11:32.954Z,2311.88
2019-05-15T17:12:32.930Z,2368.13
2019-05-15T17:13:32.924Z,2356.88
2019-05-15T17:14:32.919Z,2351.25
2019-05-15T17:15:32.921Z,2362.50
2019-05-15T17:16:32.916Z,2323.13
2019-05-15T17:17:32.929Z,2193.75
2019-05-15T17:18:32.909Z,1951.88
2019-05-15T17:19:32.907Z,1968.75
2019-05-15T17:20:32.903Z,2086.88
2019-05-15T17:21:32.900Z,1996.88
2019-05-15T17:22:32.925Z,1732.50
2019-05-15T17:23:32.895Z,2013.75
2019-05-15T17:24:32.893Z,1991.25
2019-05-15T17:25:32.891Z,1912.50
2019-05-15T17:26:32.886Z,1856.25
2019-05-15T17:27:32.884Z,1856.25
2019-05-15T17:28:32.892Z,1771.88
2019-05-15T17:29:32.878Z,1456.88
2019-05-15T17:30:32.869Z,1254.38
2019-05-15T17:31:32.864Z,945.00
2019-05-15T17:32:32.861Z,489.38
2019-05-15T17:33:32.880Z,399.38
2019-05-15T17:34:32.853Z,388.13
2019-05-15T17:35:32.850Z,405.00
2019-05-15T17:36:32.843Z,478.13
2019-05-15T17:37:32.834Z,500.63
2019-05-15T17:38:32.846Z,421.88
2019-05-15T17:39:38.121Z,421.88
2019-05-15T17:40:32.821Z,438.75
2019-05-15T17:41:32.813Z,506.25
2019-05-15T17:42:32.803Z,675.00
2019-05-15T17:43:32.812Z,1158.75
2019-05-15T17:44:32.789Z,1383.75
2019-05-15T17:45:32.794Z,1237.50
2019-05-15T17:46:32.771Z,843.75
2019-05-15T17:47:32.763Z,590.63
2019-05-15T17:48:32.769Z,489.38
2019-05-15T17:49:32.746Z,556.88
2019-05-15T17:50:44.904Z,517.50
2019-05-15T17:51:32.728Z,416.25
2019-05-15T17:52:32.722Z,382.50
2019-05-15T17:53:32.725Z,360.00
2019-05-15T17:54:32.702Z,348.75
2019-05-15T17:55:32.689Z,348.75
2019-05-15T17:56:32.686Z,343.13
2019-05-15T17:57:32.669Z,343.13
2019-05-15T17:58:32.674Z,331.88
2019-05-15T17:59:32.652Z,320.63
2019-05-15T18:00:32.652Z,303.75
2019-05-15T18:01:32.627Z,292.50
2019-05-15T18:02:32.617Z,281.25
2019-05-15T18:03:32.624Z,275.63
2019-05-15T18:04:32.595Z,270.00
2019-05-15T18:05:32.582Z,264.38
2019-05-15T18:06:32.570Z,253.13
2019-05-15T18:07:32.562Z,247.50
2019-05-15T18:08:32.563Z,241.88
2019-05-15T18:09:32.537Z,230.63
2019-05-15T18:10:32.526Z,230.63
2019-05-15T18:11:32.538Z,225.00
2019-05-15T18:12:32.504Z,225.00
2019-05-15T18:13:32.501Z,225.00
2019-05-15T18:14:32.473Z,225.00
2019-05-15T18:15:32.483Z,225.00
2019-05-15T18:16:32.448Z,225.00
2019-05-15T18:17:32.437Z,225.00
2019-05-15T18:18:32.434Z,225.00
2019-05-15T18:19:32.445Z,219.38
2019-05-15T18:20:32.422Z,213.75
2019-05-15T18:21:32.380Z,208.13
2019-05-15T18:22:32.370Z,202.50
2019-05-15T18:23:32.370Z,196.88
2019-05-15T18:24:32.340Z,191.25
2019-05-15T18:25:32.326Z,185.63
2019-05-15T18:26:32.313Z,185.63
2019-05-15T18:27:32.298Z,185.63
2019-05-15T18:28:32.285Z,180.00
2019-05-15T18:29:32.283Z,180.00
2019-05-15T18:30:32.257Z,174.38
2019-05-15T18:31:32.244Z,174.38
2019-05-15T18:32:32.237Z,168.75
2019-05-15T18:33:32.213Z,168.75
2019-05-15T18:34:32.235Z,168.75
2019-05-15T18:35:32.942Z,163.13
2019-05-15T18:36:32.179Z,151.88
2019-05-15T18:37:32.159Z,146.25
2019-05-15T18:38:32.146Z,140.63
2019-05-15T18:39:32.144Z,135.00
2019-05-15T18:40:32.115Z,129.38
2019-05-15T18:41:32.101Z,118.13
2019-05-15T18:42:32.086Z,118.13
2019-05-15T18:43:32.071Z,118.13
2019-05-15T18:44:32.073Z,112.50
2019-05-15T18:45:32.043Z,106.88
2019-05-15T18:46:32.027Z,101.25
2019-05-15T18:47:32.012Z,95.63
2019-05-15T18:48:32.003Z,90.00
2019-05-15T18:49:32.018Z,84.38
2019-05-15T18:50:31.969Z,78.75
2019-05-15T18:51:31.953Z,78.75
2019-05-15T18:52:31.944Z,73.13
2019-05-15T18:53:31.922Z,67.50
2019-05-15T18:54:31.910Z,67.50
2019-05-15T18:55:31.908Z,67.50
2019-05-15T18:56:31.879Z,61.88
2019-05-15T18:57:31.879Z,61.88
2019-05-15T18:58:31.852Z,56.25
2019-05-15T18:59:31.831Z,50.63
2019-05-15T19:00:31.836Z,45.00
2019-05-15T19:01:31.798Z,45.00
2019-05-15T19:02:31.785Z,39.38
2019-05-15T19:03:31.769Z,33.75
2019-05-15T19:04:31.755Z,28.13
2019-05-15T19:05:31.750Z,28.13
2019-05-15T19:06:31.722Z,28.13
2019-05-15T19:07:31.709Z,22.50
2019-05-15T19:08:31.692Z,22.50
2019-05-15T19:09:31.677Z,22.50
2019-05-15T19:10:31.678Z,16.88
2019-05-15T19:11:31.646Z,16.88
2019-05-15T19:12:31.630Z,16.88
2019-05-15T19:13:31.612Z,16.88
2019-05-15T19:14:31.597Z,11.25
2019-05-15T19:15:31.594Z,11.25
2019-05-15T19:16:31.888Z,11.25
2019-05-15T19:17:31.548Z,11.25
2019-05-15T19:18:31.532Z,11.25
2019-05-15T19:19:31.518Z,5.63
2019-05-15T19:20:31.860Z,5.63
2019-05-15T19:21:31.502Z,5.63
2019-05-15T19:22:31.467Z,5.63
2019-05-15T19:23:31.452Z,5.63
2019-05-15T19:24:31.439Z,5.63
2019-05-15T19:25:31.421Z,5.63
2019-05-15T19:26:31.426Z,0.00
2019-05-15T19:27:31.387Z,0.00
2019-05-15T19:28:31.372Z,0.00
2019-05-15T19:29:31.354Z,0.00
2019-05-15T19:30:31.339Z,0.00
2019-05-15T19:31:31.337Z,0.00
2019-05-15T19:32:31.313Z,0.00
2019-05-15T19:33:36.920Z,0.00
2019-05-15T19:34:31.274Z,0.00
2019-05-15T19:35:31.258Z,0.00
2019-05-15T19:36:31.257Z,0.00
2019-05-15T19:37:33.749Z,0.00
2019-05-15T19:38:31.205Z,0.00
2019-05-15T19:39:31.190Z,0.00